Time;durP1;ratioP1;P1;durP2;ratioP2;P2;SDS_P1;SDS_P2;PMS_P1;PMS_P2;Temp;Humidity;BMP_temperature;BMP_pressure;BME280_temperature;BME280_humidity;BME280_pressure;Samples;Min_cycle;Max_cycle;Signal;HPM_P1;HPM_P2
2021/12/21 00:01:21;;;;;;;17.75;5.60;;;1.50;99.90;;;;;;4957233;29;20034;-32
2021/12/21 00:03:46;;;;;;;18.05;4.93;;;1.50;99.90;;;;;;4956630;29;20031;-33
2021/12/21 00:06:12;;;;;;;15.55;5.13;;;1.50;99.90;;;;;;4957226;29;20035;-35
2021/12/21 00:08:38;;;;;;;16.13;4.70;;;1.50;99.90;;;;;;4956835;29;20511;-31
2021/12/21 00:11:03;;;;;;;9.85;5.10;;;1.50;99.90;;;;;;4956757;29;20023;-36
2021/12/21 00:18:39;;;;;;;14.18;4.68;;;1.50;99.90;;;;;;4956861;29;20038;-36
2021/12/21 00:23:52;;;;;;;16.13;4.85;;;1.50;99.90;;;;;;4956873;29;20065;-43
2021/12/21 00:26:19;;;;;;;;;;;1.50;99.90;;;;;;4938524;29;20671;-37
2021/12/21 00:31:15;;;;;;;17.00;4.97;;;1.50;99.90;;;;;;4955091;28;20040;-37
2021/12/21 00:33:45;;;;;;;17.63;5.05;;;1.40;99.90;;;;;;4956057;29;20030;-32
2021/12/21 00:36:11;;;;;;;11.63;4.93;;;1.40;99.90;;;;;;4955875;29;20034;-34
2021/12/21 00:38:37;;;;;;;26.08;6.75;;;1.40;99.90;;;;;;4956883;29;20388;-32
2021/12/21 00:41:03;;;;;;;9.57;4.68;;;1.40;99.90;;;;;;4956337;29;20035;-37
2021/12/21 00:43:28;;;;;;;12.88;4.55;;;1.40;99.90;;;;;;4955959;29;20035;-33
2021/12/21 00:45:54;;;;;;;15.90;4.50;;;1.40;99.90;;;;;;4956291;29;20151;-43
2021/12/21 00:48:26;;;;;;;12.15;4.53;;;1.50;99.90;;;;;;4955959;29;20045;-40
2021/12/21 00:50:52;;;;;;;18.83;4.75;;;1.50;99.90;;;;;;4956044;29;20035;-31
2021/12/21 00:53:17;;;;;;;18.55;4.43;;;1.60;99.90;;;;;;4955942;29;20508;-31
2021/12/21 00:55:43;;;;;;;10.35;4.15;;;1.70;99.90;;;;;;4940514;29;20023;-38
2021/12/21 00:58:08;;;;;;;16.20;4.70;;;1.70;99.90;;;;;;4955913;29;20427;-36
2021/12/21 01:00:35;;;;;;;13.45;4.63;;;1.70;99.90;;;;;;4956054;29;20026;-36
2021/12/21 01:03:06;;;;;;;11.95;4.65;;;1.80;99.90;;;;;;4955761;29;20570;-38
2021/12/21 01:05:44;;;;;;;16.25;4.32;;;1.70;99.90;;;;;;4954406;29;20538;-37
2021/12/21 01:08:14;;;;;;;16.45;5.57;;;1.70;99.90;;;;;;4955957;29;20440;-36
2021/12/21 01:13:25;;;;;;;17.70;4.63;;;1.70;99.90;;;;;;4956327;29;20028;-33
2021/12/21 01:16:29;;;;;;;15.65;4.53;;;1.70;99.90;;;;;;4955363;29;20023;-37
2021/12/21 01:19:00;;;;;;;19.27;5.57;;;1.70;99.90;;;;;;4951116;29;20110;-37
2021/12/21 01:21:30;;;;;;;12.32;4.10;;;1.70;99.90;;;;;;4950044;29;20031;-33
2021/12/21 01:26:53;;;;;;;12.52;4.43;;;1.60;99.90;;;;;;4955413;29;20041;-32
2021/12/21 01:29:31;;;;;;;12.27;4.47;;;1.50;99.90;;;;;;4955827;29;20035;-32
2021/12/21 01:32:23;;;;;;;11.95;4.72;;;1.50;99.90;;;;;;4954980;29;20023;-34
2021/12/21 01:35:01;;;;;;;9.80;3.88;;;1.40;99.90;;;;;;4955251;29;20031;-40
2021/12/21 01:40:12;;;;;;;13.30;4.30;;;1.40;99.90;;;;;;4954959;29;20457;-35
2021/12/21 01:42:53;;;;;;;12.27;4.30;;;1.30;99.90;;;;;;4954599;29;20110;-35
2021/12/21 01:50:51;;;;;;;9.13;3.55;;;1.30;99.90;;;;;;4954863;29;20034;-32
2021/12/21 01:53:16;;;;;;;11.32;4.05;;;1.30;99.90;;;;;;4954826;29;20462;-32
2021/12/21 01:55:42;;;;;;;11.48;4.05;;;1.30;99.90;;;;;;4955097;29;20023;-33
2021/12/21 01:58:09;;;;;;;13.73;4.35;;;1.30;99.90;;;;;;4954722;29;20027;-37
2021/12/21 02:00:35;;;;;;;12.52;4.18;;;1.20;99.90;;;;;;4954918;29;20030;-32
2021/12/21 02:03:02;;;;;;;11.18;4.00;;;1.20;99.90;;;;;;4954157;29;20488;-30
2021/12/21 02:05:28;;;;;;;18.85;4.60;;;1.10;99.90;;;;;;4954854;29;20689;-37
2021/12/21 02:07:54;;;;;;;17.48;5.63;;;1.10;99.90;;;;;;4954390;29;20030;-33
2021/12/21 02:10:19;;;;;;;9.35;4.32;;;1.10;99.90;;;;;;4953931;29;20391;-30
2021/12/21 02:12:45;;;;;;;8.60;4.03;;;1.00;99.90;;;;;;4954535;29;20030;-33
2021/12/21 02:15:11;;;;;;;13.75;4.45;;;1.10;99.90;;;;;;4954238;29;20050;-32
2021/12/21 02:23:08;;;;;;;13.50;4.88;;;1.10;99.90;;;;;;4954727;29;20027;-33
2021/12/21 02:26:07;;;;;;;13.18;4.30;;;1.10;99.90;;;;;;4954463;29;20031;-34
2021/12/21 02:30:56;;;;;;;6.60;3.67;;;1.10;99.90;;;;;;4953635;29;20507;-33
2021/12/21 02:33:25;;;;;;;18.52;4.78;;;1.00;99.90;;;;;;4954219;29;20020;-35
2021/12/21 02:35:51;;;;;;;11.68;4.43;;;1.10;99.90;;;;;;4954504;29;20046;-33
2021/12/21 02:38:17;;;;;;;13.98;4.65;;;1.10;99.90;;;;;;4954628;29;20384;-40
2021/12/21 02:40:43;;;;;;;17.42;4.82;;;1.10;99.90;;;;;;4953980;29;20023;-38
2021/12/21 02:43:13;;;;;;;24.75;4.78;;;1.10;99.90;;;;;;4952678;29;20058;-37
2021/12/21 02:45:40;;;;;;;10.60;3.95;;;1.10;99.90;;;;;;4954217;29;20023;-33
2021/12/21 02:48:06;;;;;;;11.98;3.83;;;1.00;99.90;;;;;;4954121;29;20030;-38
2021/12/21 02:50:33;;;;;;;14.45;4.50;;;1.00;99.90;;;;;;4953597;29;20472;-37
2021/12/21 02:53:02;;;;;;;9.27;3.78;;;1.00;99.90;;;;;;4954482;28;20034;-34
2021/12/21 02:55:28;;;;;;;11.38;3.72;;;1.00;99.90;;;;;;4957672;29;20213;-34
2021/12/21 02:57:57;;;;;;;9.98;3.78;;;1.00;99.90;;;;;;4958256;29;20495;-33
2021/12/21 03:00:23;;;;;;;13.45;3.83;;;0.90;99.90;;;;;;4958561;29;20031;-34
2021/12/21 03:02:49;;;;;;;14.18;4.97;;;0.90;99.90;;;;;;4958498;29;20070;-33
2021/12/21 03:05:15;;;;;;;18.13;4.22;;;0.90;99.90;;;;;;4957742;29;20059;-38
2021/12/21 03:10:22;;;;;;;9.25;4.30;;;0.80;99.90;;;;;;4942077;29;20062;-34
2021/12/21 03:15:32;;;;;;;15.73;4.40;;;0.80;99.90;;;;;;4957474;29;20042;-33
2021/12/21 03:17:58;;;;;;;20.25;4.97;;;0.80;99.90;;;;;;4957473;29;20031;-33
2021/12/21 03:20:24;;;;;;;15.35;4.80;;;0.80;99.90;;;;;;4957900;29;20031;-35
2021/12/21 03:22:51;;;;;;;14.65;4.10;;;0.80;99.90;;;;;;4957824;29;20043;-36
2021/12/21 03:25:17;;;;;;;12.02;4.32;;;0.80;99.90;;;;;;4957330;29;20480;-34
2021/12/21 03:27:43;;;;;;;15.10;4.82;;;0.80;99.90;;;;;;4957321;29;20027;-34
2021/12/21 03:30:12;;;;;;;10.57;4.22;;;0.80;99.90;;;;;;4957725;29;20027;-34
2021/12/21 03:32:38;;;;;;;13.30;4.20;;;0.80;99.90;;;;;;4957554;29;20042;-31
2021/12/21 03:35:06;;;;;;;12.18;3.65;;;0.80;99.90;;;;;;4957411;29;20484;-31
2021/12/21 03:37:31;;;;;;;10.55;3.95;;;0.80;99.90;;;;;;4957383;29;20519;-31
2021/12/21 03:40:00;;;;;;;12.45;4.70;;;0.80;99.90;;;;;;4957461;29;20034;-32
2021/12/21 03:42:25;;;;;;;11.88;4.47;;;0.70;99.90;;;;;;4957381;28;20074;-34
2021/12/21 03:44:51;;;;;;;13.52;4.32;;;0.70;99.90;;;;;;4957264;29;20070;-34
2021/12/21 03:47:17;;;;;;;20.20;4.95;;;0.70;99.90;;;;;;4957565;29;20027;-46
2021/12/21 03:52:10;;;;;;;12.57;4.07;;;0.70;99.90;;;;;;4957819;29;20038;-33
2021/12/21 03:54:38;;;;;;;9.65;4.70;;;0.70;99.90;;;;;;4956597;29;20526;-36
2021/12/21 03:57:04;;;;;;;18.90;4.82;;;0.60;99.90;;;;;;4957209;29;20026;-32
2021/12/21 03:59:30;;;;;;;13.65;3.95;;;0.60;99.90;;;;;;4956970;29;20031;-33
2021/12/21 04:01:56;;;;;;;7.20;3.97;;;0.60;99.90;;;;;;4957027;29;20082;-38
2021/12/21 04:04:23;;;;;;;12.10;4.45;;;0.60;99.90;;;;;;4956619;28;20484;-33
2021/12/21 04:06:49;;;;;;;13.25;4.18;;;0.60;99.90;;;;;;4956890;29;20059;-38
2021/12/21 04:09:16;;;;;;;18.05;5.70;;;0.60;99.90;;;;;;4956568;29;20187;-36
2021/12/21 04:11:41;;;;;;;13.85;4.15;;;0.60;99.90;;;;;;4939506;29;20015;-33
2021/12/21 04:14:09;;;;;;;15.15;4.30;;;0.60;99.90;;;;;;4956454;29;20027;-32
2021/12/21 04:16:35;;;;;;;17.25;4.45;;;0.60;99.90;;;;;;4956999;29;20020;-35
2021/12/21 04:19:01;;;;;;;11.10;4.55;;;0.50;99.90;;;;;;4952448;29;20499;-32
2021/12/21 04:21:27;;;;;;;10.70;4.57;;;0.50;99.90;;;;;;4956549;29;20436;-32
2021/12/21 04:23:53;;;;;;;9.50;4.00;;;0.50;99.90;;;;;;4956371;29;20090;-35
2021/12/21 04:26:19;;;;;;;8.35;4.47;;;0.50;99.90;;;;;;4956560;29;20027;-32
2021/12/21 04:28:45;;;;;;;15.05;4.65;;;0.50;99.90;;;;;;4956286;29;20498;-37
2021/12/21 04:31:12;;;;;;;17.80;4.70;;;0.50;99.90;;;;;;4955725;29;20027;-33
2021/12/21 04:33:42;;;;;;;16.42;4.60;;;0.50;99.90;;;;;;4956395;29;20094;-45
2021/12/21 04:36:08;;;;;;;11.63;4.60;;;0.60;99.90;;;;;;4956404;29;20051;-37
2021/12/21 04:38:38;;;;;;;15.20;4.68;;;0.60;99.90;;;;;;4956168;29;20038;-31
2021/12/21 04:41:12;;;;;;;11.13;5.43;;;0.60;99.90;;;;;;4956228;29;20028;-32
2021/12/21 04:43:38;;;;;;;11.82;5.35;;;0.60;99.90;;;;;;4955900;29;20499;-35
2021/12/21 04:46:04;;;;;;;13.15;4.32;;;0.50;99.90;;;;;;4956179;29;20023;-33
2021/12/21 04:48:30;;;;;;;12.07;4.90;;;0.60;99.90;;;;;;4955997;29;20035;-31
2021/12/21 04:50:56;;;;;;;12.48;4.72;;;0.60;99.90;;;;;;4955435;29;20019;-34
2021/12/21 04:53:22;;;;;;;16.02;4.35;;;0.50;99.90;;;;;;4955853;29;20102;-33
2021/12/21 04:55:48;;;;;;;14.00;4.40;;;0.60;99.90;;;;;;4956454;29;20118;-32
2021/12/21 04:58:13;;;;;;;9.75;3.90;;;0.60;99.90;;;;;;4955859;29;20023;-33
2021/12/21 05:00:40;;;;;;;9.80;3.88;;;0.50;99.90;;;;;;4955683;29;20483;-33
2021/12/21 05:03:07;;;;;;;7.45;3.80;;;0.60;99.90;;;;;;4956079;29;20468;-34
2021/12/21 05:05:33;;;;;;;13.70;5.05;;;0.50;99.90;;;;;;4955619;29;20062;-34
2021/12/21 05:08:19;;;;;;;12.00;4.75;;;0.50;99.90;;;;;;4955918;29;20054;-34
2021/12/21 05:10:52;;;;;;;15.50;4.78;;;0.50;99.90;;;;;;4955483;29;20023;-35
2021/12/21 05:13:20;;;;;;;19.25;5.30;;;0.50;99.90;;;;;;4955635;29;20244;-40
2021/12/21 05:15:46;;;;;;;10.75;3.35;;;0.50;99.90;;;;;;4955071;28;20038;-40
2021/12/21 05:18:14;;;;;;;14.93;5.10;;;0.50;99.90;;;;;;4955107;29;20023;-34
2021/12/21 05:20:40;;;;;;;14.05;5.20;;;0.50;99.90;;;;;;4955514;29;20558;-37
2021/12/21 05:23:07;;;;;;;14.00;4.15;;;0.50;99.90;;;;;;4955751;29;20498;-33
2021/12/21 05:25:33;;;;;;;12.02;4.60;;;0.40;99.90;;;;;;4955469;29;20524;-33
2021/12/21 05:27:58;;;;;;;21.17;5.30;;;0.40;99.90;;;;;;4938089;29;20023;-34
2021/12/21 05:30:25;;;;;;;10.98;4.75;;;0.40;99.90;;;;;;4954868;28;20043;-35
2021/12/21 05:32:51;;;;;;;16.00;4.70;;;0.40;99.90;;;;;;4955855;29;20023;-47
2021/12/21 05:35:17;;;;;;;10.13;4.10;;;0.40;99.90;;;;;;4954960;29;20527;-34
2021/12/21 05:37:43;;;;;;;12.73;4.50;;;0.30;99.90;;;;;;4955062;29;20022;-34
2021/12/21 05:42:35;;;;;;;11.77;4.35;;;0.30;99.90;;;;;;4955653;29;20050;-37
2021/12/21 05:45:01;;;;;;;16.60;5.05;;;0.30;99.90;;;;;;4955223;29;20034;-38
2021/12/21 05:47:27;;;;;;;7.45;4.65;;;0.40;99.90;;;;;;4954898;29;20042;-33
2021/12/21 05:49:53;;;;;;;8.82;4.50;;;0.30;99.90;;;;;;4954638;29;20411;-31
2021/12/21 05:52:18;;;;;;;11.70;4.40;;;0.40;99.90;;;;;;4955579;29;20026;-30
2021/12/21 05:54:44;;;;;;;12.35;4.97;;;0.30;99.90;;;;;;4954236;29;20027;-40
2021/12/21 05:57:10;;;;;;;19.88;4.68;;;0.30;99.90;;;;;;4954361;29;20023;-34
2021/12/21 05:59:35;;;;;;;12.15;4.72;;;0.30;99.90;;;;;;4955251;29;20051;-37
2021/12/21 06:02:01;;;;;;;13.82;4.43;;;0.30;99.90;;;;;;4954693;29;20028;-34
2021/12/21 06:04:27;;;;;;;6.78;3.95;;;0.30;99.90;;;;;;4954479;29;20035;-38
2021/12/21 06:06:52;;;;;;;19.63;5.65;;;0.30;99.90;;;;;;4954617;29;20091;-33
2021/12/21 06:09:19;;;;;;;19.05;4.00;;;0.30;99.90;;;;;;4954962;29;20411;-38
2021/12/21 06:12:05;;;;;;;13.02;5.00;;;0.30;99.90;;;;;;4954918;29;20040;-31
2021/12/21 06:14:56;;;;;;;17.35;6.38;;;0.30;99.90;;;;;;4954764;29;20027;-38
2021/12/21 06:23:06;;;;;;;10.63;4.40;;;0.30;99.90;;;;;;4942334;29;20427;-31
2021/12/21 06:25:52;;;;;;;16.23;4.20;;;0.30;99.90;;;;;;4954449;29;20031;-38
2021/12/21 06:28:17;;;;;;;8.77;4.55;;;0.20;99.90;;;;;;4954140;28;20117;-37
2021/12/21 06:30:43;;;;;;;10.25;4.53;;;0.20;99.90;;;;;;4954553;29;20489;-32
2021/12/21 06:33:09;;;;;;;10.77;4.68;;;0.20;99.90;;;;;;4954249;29;20023;-36
2021/12/21 06:35:37;;;;;;;15.40;6.18;;;0.20;99.90;;;;;;4954430;29;20498;-36
2021/12/21 06:38:04;;;;;;;15.73;4.95;;;0.30;99.90;;;;;;4954038;29;20058;-36
2021/12/21 06:40:31;;;;;;;9.73;4.18;;;0.30;99.90;;;;;;4954351;29;20542;-37
2021/12/21 06:43:00;;;;;;;11.00;5.32;;;0.30;99.90;;;;;;4954195;29;20075;-36
2021/12/21 06:45:31;;;;;;;10.27;4.97;;;0.20;99.90;;;;;;4953752;29;20472;-32
2021/12/21 06:53:26;;;;;;;15.98;4.18;;;0.20;99.90;;;;;;4950430;29;20046;-36
2021/12/21 06:55:52;;;;;;;12.15;4.40;;;0.20;99.90;;;;;;4954120;29;20028;-37
2021/12/21 06:58:17;;;;;;;16.92;5.47;;;0.20;99.90;;;;;;4954220;29;20035;-36
2021/12/21 07:00:45;;;;;;;11.20;5.00;;;0.20;99.90;;;;;;4953716;29;20027;-32
2021/12/21 07:03:13;;;;;;;16.47;5.00;;;0.20;99.90;;;;;;4954462;29;20397;-33
2021/12/21 07:05:40;;;;;;;8.93;4.70;;;0.10;99.90;;;;;;4953799;29;20480;-35
2021/12/21 07:08:09;;;;;;;11.25;4.50;;;0.20;99.90;;;;;;4953993;29;20107;-34
2021/12/21 07:10:37;;;;;;;10.32;5.03;;;0.10;99.90;;;;;;4953252;29;20027;-33
2021/12/21 07:18:32;;;;;;;8.38;4.47;;;0.20;99.90;;;;;;4939816;29;20567;-35
2021/12/21 07:21:00;;;;;;;9.15;4.80;;;0.20;99.90;;;;;;4953654;29;20110;-40
2021/12/21 07:23:27;;;;;;;11.77;4.75;;;0.20;99.90;;;;;;4953777;29;20020;-32
2021/12/21 07:25:52;;;;;;;13.80;5.78;;;0.20;99.90;;;;;;4953439;29;20475;-34
2021/12/21 07:28:19;;;;;;;13.65;4.78;;;0.10;99.90;;;;;;4953936;29;20027;-35
2021/12/21 07:30:47;;;;;;;19.02;5.82;;;0.10;99.90;;;;;;4954258;29;20026;-46
2021/12/21 07:33:14;;;;;;;15.15;4.57;;;0.10;99.90;;;;;;4953955;29;20035;-32
2021/12/21 07:35:39;;;;;;;13.55;5.07;;;0.10;99.90;;;;;;4953797;29;20091;-36
2021/12/21 07:38:05;;;;;;;18.13;5.57;;;0.10;99.90;;;;;;4953776;28;20412;-35
2021/12/21 07:40:31;;;;;;;21.30;5.65;;;0.10;99.90;;;;;;4956697;29;20036;-33
2021/12/21 07:42:57;;;;;;;12.40;4.47;;;0.10;99.90;;;;;;4955205;29;20047;-37
2021/12/21 07:45:23;;;;;;;16.10;4.57;;;0.10;99.90;;;;;;4956831;29;20054;-35
2021/12/21 07:47:48;;;;;;;12.93;5.90;;;0.10;99.90;;;;;;4957047;29;20102;-31
2021/12/21 07:50:14;;;;;;;12.63;5.35;;;0.10;99.90;;;;;;4957164;29;20023;-31
2021/12/21 07:52:40;;;;;;;12.63;5.47;;;0.00;99.90;;;;;;4957090;29;20105;-36
2021/12/21 07:55:06;;;;;;;10.90;4.57;;;0.10;99.90;;;;;;4957053;29;20027;-32
2021/12/21 07:57:32;;;;;;;25.88;5.63;;;0.10;99.90;;;;;;4956871;29;20505;-34
2021/12/21 07:59:58;;;;;;;11.25;4.05;;;0.10;99.90;;;;;;4956755;29;20118;-38
2021/12/21 08:02:25;;;;;;;11.40;5.30;;;0.10;99.90;;;;;;4956199;28;20105;-33
2021/12/21 08:04:52;;;;;;;12.05;4.90;;;0.10;99.90;;;;;;4956845;29;20042;-43
2021/12/21 08:07:23;;;;;;;10.77;4.70;;;0.20;99.90;;;;;;4955325;29;20032;-35
2021/12/21 08:09:52;;;;;;;14.77;4.90;;;0.20;99.90;;;;;;4956587;29;20046;-36
2021/12/21 08:12:19;;;;;;;17.60;5.70;;;0.20;99.90;;;;;;4956952;29;20033;-37
2021/12/21 08:14:50;;;;;;;16.85;5.95;;;0.30;99.90;;;;;;4955237;29;20068;-37
2021/12/21 08:17:17;;;;;;;10.20;5.43;;;0.30;99.90;;;;;;4956050;29;20495;-34
2021/12/21 08:19:46;;;;;;;23.48;6.95;;;0.30;99.90;;;;;;4956414;29;20034;-31
2021/12/21 08:22:12;;;;;;;20.85;6.18;;;0.40;99.90;;;;;;4956776;29;20102;-31
2021/12/21 08:24:39;;;;;;;19.90;5.30;;;0.40;99.90;;;;;;4955844;29;20118;-34
2021/12/21 08:27:05;;;;;;;8.50;4.85;;;0.40;99.90;;;;;;4956157;29;20118;-35
2021/12/21 08:29:31;;;;;;;21.73;6.72;;;0.40;99.90;;;;;;4956473;29;20110;-34
2021/12/21 08:31:56;;;;;;;12.77;5.80;;;0.50;99.90;;;;;;4956715;29;20483;-37
2021/12/21 08:34:22;;;;;;;19.73;6.63;;;0.40;99.90;;;;;;4956182;29;20033;-35
2021/12/21 08:36:49;;;;;;;20.52;7.55;;;0.40;99.90;;;;;;4956469;29;20031;-34
2021/12/21 08:39:16;;;;;;;21.23;6.78;;;0.50;99.90;;;;;;4955969;29;20026;-40
2021/12/21 08:41:44;;;;;;;16.07;6.10;;;0.50;99.90;;;;;;4935032;29;20504;-37
2021/12/21 08:44:11;;;;;;;17.80;6.53;;;0.60;99.90;;;;;;4936735;29;20503;-43
2021/12/21 08:46:40;;;;;;;18.67;7.75;;;0.70;99.90;;;;;;4937423;29;20527;-29
2021/12/21 08:49:06;;;;;;;19.77;6.90;;;0.70;99.90;;;;;;4936055;29;20096;-32
2021/12/21 08:51:32;;;;;;;18.50;7.63;;;0.70;99.90;;;;;;4936558;29;20032;-33
2021/12/21 08:53:58;;;;;;;15.73;6.65;;;0.80;99.90;;;;;;4936522;29;20032;-36
2021/12/21 08:56:24;;;;;;;21.35;8.52;;;0.90;99.90;;;;;;4937080;29;20039;-39
2021/12/21 08:58:50;;;;;;;21.33;7.57;;;0.90;99.90;;;;;;4936735;29;20107;-36
2021/12/21 09:01:17;;;;;;;21.83;8.27;;;0.90;99.90;;;;;;4936631;29;20118;-36
2021/12/21 09:03:43;;;;;;;23.33;7.68;;;0.90;99.90;;;;;;4936931;29;20362;-32
2021/12/21 09:06:09;;;;;;;17.10;7.82;;;0.90;99.90;;;;;;4936321;29;20039;-33
2021/12/21 09:08:35;;;;;;;18.30;6.70;;;1.00;99.90;;;;;;4936308;29;20485;-36
2021/12/21 09:11:04;;;;;;;13.30;6.90;;;1.00;99.90;;;;;;4936259;29;20024;-34
2021/12/21 09:13:31;;;;;;;18.50;6.38;;;1.20;99.90;;;;;;4935468;29;20062;-39
2021/12/21 09:15:57;;;;;;;18.10;6.97;;;1.40;99.90;;;;;;4936581;29;20500;-36
2021/12/21 09:18:23;;;;;;;18.88;7.18;;;1.40;99.90;;;;;;4933817;29;20039;-35
2021/12/21 09:20:48;;;;;;;14.85;6.95;;;1.40;99.90;;;;;;4935984;29;20177;-38
2021/12/21 09:23:15;;;;;;;19.80;7.95;;;1.50;99.90;;;;;;4936025;29;20028;-36
2021/12/21 09:25:40;;;;;;;18.92;6.60;;;1.60;99.90;;;;;;4936450;29;20024;-35
2021/12/21 09:28:07;;;;;;;17.38;6.50;;;1.70;99.90;;;;;;4934446;29;20623;-35
2021/12/21 09:30:33;;;;;;;15.10;6.68;;;1.80;99.90;;;;;;4933220;29;20043;-37
2021/12/21 09:32:59;;;;;;;20.45;6.82;;;2.00;99.90;;;;;;4935167;29;20036;-38
2021/12/21 09:35:26;;;;;;;13.80;5.88;;;2.20;99.90;;;;;;4936027;29;20028;-37
2021/12/21 09:37:52;;;;;;;13.48;5.65;;;2.20;99.90;;;;;;4935956;29;20083;-36
2021/12/21 09:40:25;;;;;;;18.77;5.75;;;2.40;99.90;;;;;;4936098;29;20020;-34
2021/12/21 09:42:53;;;;;;;13.32;5.40;;;2.50;99.90;;;;;;4950071;29;20132;-35
2021/12/21 09:45:19;;;;;;;21.77;6.50;;;2.70;99.90;;;;;;4955395;29;20086;-48
2021/12/21 09:47:45;;;;;;;11.45;5.50;;;2.80;99.90;;;;;;4954639;29;20027;-38
2021/12/21 09:50:13;;;;;;;12.95;5.22;;;2.90;99.90;;;;;;4954492;29;20514;-34
2021/12/21 09:52:39;;;;;;;22.30;6.13;;;3.00;99.90;;;;;;4954919;29;20027;-37
2021/12/21 09:55:08;;;;;;;24.52;5.63;;;3.00;99.90;;;;;;4954686;29;20038;-37
2021/12/21 09:57:34;;;;;;;16.85;6.60;;;3.00;99.90;;;;;;4955584;29;20027;-35
2021/12/21 10:00:03;;;;;;;15.80;5.72;;;3.00;99.90;;;;;;4954536;29;20521;-33
2021/12/21 10:02:29;;;;;;;15.40;6.13;;;3.00;99.90;;;;;;4954408;28;20086;-32
2021/12/21 10:04:56;;;;;;;12.85;4.82;;;3.00;99.90;;;;;;4954869;29;20472;-35
2021/12/21 10:07:23;;;;;;;12.63;6.53;;;3.00;99.90;;;;;;4955234;29;20043;-40
2021/12/21 10:09:50;;;;;;;21.02;6.10;;;3.00;99.90;;;;;;4954186;29;20038;-36
2021/12/21 10:12:34;;;;;;;21.90;7.70;;;3.10;99.90;;;;;;4954743;29;20452;-34
2021/12/21 10:15:09;;;;;;;16.95;6.45;;;3.20;99.90;;;;;;4954364;29;20492;-37
2021/12/21 10:17:36;;;;;;;13.90;6.28;;;3.20;99.90;;;;;;4939529;29;20081;-36
2021/12/21 10:20:06;;;;;;;20.67;8.02;;;3.30;99.90;;;;;;4954285;29;20496;-40
2021/12/21 10:22:32;;;;;;;17.17;6.30;;;3.40;99.90;;;;;;4954912;29;20027;-35
2021/12/21 10:24:58;;;;;;;17.67;5.53;;;3.50;99.90;;;;;;4954674;29;20027;-34
2021/12/21 10:27:24;;;;;;;10.80;5.47;;;3.60;99.90;;;;;;4953835;29;20027;-34
2021/12/21 10:29:59;;;;;;;21.02;6.75;;;3.60;99.90;;;;;;4952747;29;20039;-31
2021/12/21 10:32:26;;;;;;;18.77;6.95;;;3.60;99.90;;;;;;4953804;29;20492;-35
2021/12/21 10:35:00;;;;;;;15.80;6.63;;;3.70;99.90;;;;;;4954559;29;20078;-35
2021/12/21 10:37:31;;;;;;;19.25;6.97;;;3.80;99.90;;;;;;4954844;29;20512;-37
2021/12/21 10:40:21;;;;;;;28.05;7.38;;;3.80;99.90;;;;;;4950728;29;20126;-34
2021/12/21 10:42:56;;;;;;;17.45;7.35;;;3.90;99.90;;;;;;4953951;29;20048;-38
2021/12/21 10:45:37;;;;;;;17.65;7.22;;;4.00;99.90;;;;;;4950510;29;20471;-34
2021/12/21 10:48:06;;;;;;;15.13;6.85;;;4.00;99.90;;;;;;4952794;29;20468;-32
2021/12/21 10:50:34;;;;;;;27.05;7.35;;;4.00;99.90;;;;;;4952879;29;20492;-34
2021/12/21 10:53:01;;;;;;;13.60;5.50;;;4.10;99.90;;;;;;4954134;29;20325;-36
2021/12/21 10:55:37;;;;;;;13.32;4.63;;;4.20;99.90;;;;;;4954185;29;20110;-32
2021/12/21 10:58:15;;;;;;;19.33;7.45;;;4.20;99.90;;;;;;4954763;29;20508;-35
2021/12/21 11:00:45;;;;;;;16.60;7.20;;;4.20;99.90;;;;;;4953956;29;20038;-39
2021/12/21 11:03:16;;;;;;;14.13;6.80;;;4.10;99.90;;;;;;4945233;29;20031;-35
2021/12/21 11:05:42;;;;;;;16.27;6.75;;;4.00;99.90;;;;;;4953896;29;20484;-31
2021/12/21 11:08:16;;;;;;;24.33;7.95;;;4.00;99.90;;;;;;4953746;29;20031;-34
2021/12/21 11:10:48;;;;;;;16.27;7.07;;;4.00;99.90;;;;;;4949897;29;20061;-36
2021/12/21 11:13:15;;;;;;;14.70;7.45;;;4.00;99.90;;;;;;4953846;28;20026;-35
2021/12/21 11:15:51;;;;;;;24.23;7.65;;;4.10;99.90;;;;;;4957676;29;20383;-35
2021/12/21 11:18:17;;;;;;;14.85;6.07;;;4.10;99.90;;;;;;4957473;29;20028;-34
2021/12/21 11:20:46;;;;;;;19.38;6.60;;;4.10;99.90;;;;;;4957715;29;20094;-32
2021/12/21 11:23:13;;;;;;;11.13;5.03;;;4.10;99.90;;;;;;4956940;29;20476;-39
2021/12/21 11:25:39;;;;;;;19.92;6.90;;;4.10;99.90;;;;;;4957180;29;20098;-33
2021/12/21 11:28:05;;;;;;;25.05;7.88;;;4.10;99.90;;;;;;4956738;29;20024;-36
2021/12/21 11:30:34;;;;;;;18.25;5.63;;;4.20;99.90;;;;;;4957237;29;20031;-35
2021/12/21 11:33:03;;;;;;;13.45;5.75;;;4.30;99.90;;;;;;4948616;29;20515;-36
2021/12/21 11:38:02;;;;;;;13.55;5.78;;;4.70;99.90;;;;;;4957383;29;20070;-36
2021/12/21 11:40:31;;;;;;;20.42;9.35;;;4.80;99.90;;;;;;4938787;29;20039;-34
2021/12/21 11:43:12;;;;;;;24.42;9.95;;;4.80;99.90;;;;;;4955860;28;20066;-34
2021/12/21 11:45:45;;;;;;;17.98;5.80;;;4.80;99.90;;;;;;4955663;29;20115;-33
2021/12/21 11:48:10;;;;;;;10.60;5.10;;;4.80;99.90;;;;;;4956081;29;20039;-32
2021/12/21 11:50:43;;;;;;;13.68;5.10;;;4.70;99.90;;;;;;4946185;29;20046;-40
2021/12/21 11:53:13;;;;;;;9.10;4.63;;;4.70;99.90;;;;;;4937413;29;20038;-31
2021/12/21 11:55:42;;;;;;;13.68;4.30;;;4.60;99.90;;;;;;4952161;29;20054;-38
2021/12/21 11:58:16;;;;;;;11.93;5.35;;;4.60;99.90;;;;;;4955847;29;20480;-31
2021/12/21 12:01:03;;;;;;;18.00;6.97;;;4.50;99.90;;;;;;4937935;29;20070;-35
2021/12/21 12:03:33;;;;;;;11.00;5.65;;;4.60;99.90;;;;;;4954850;29;20450;-33
2021/12/21 12:06:13;;;;;;;10.07;5.50;;;4.70;99.90;;;;;;4955996;29;20035;-35
2021/12/21 12:08:57;;;;;;;14.95;6.53;;;4.80;99.90;;;;;;4956212;29;20038;-37
2021/12/21 12:11:35;;;;;;;13.85;5.35;;;4.90;99.90;;;;;;4937742;29;20098;-37
2021/12/21 12:14:17;;;;;;;14.18;5.90;;;4.90;99.90;;;;;;4955979;29;20472;-35
2021/12/21 12:17:01;;;;;;;17.10;5.82;;;5.00;99.90;;;;;;4956122;29;20140;-36
2021/12/21 12:19:32;;;;;;;19.73;6.82;;;5.10;99.90;;;;;;4937523;29;20050;-35
2021/12/21 12:22:07;;;;;;;12.77;6.38;;;5.20;99.90;;;;;;4956843;29;20542;-38
2021/12/21 12:25:14;;;;;;;18.33;6.00;;;5.10;99.90;;;;;;4950399;28;20035;-35
2021/12/21 12:27:46;;;;;;;9.07;4.47;;;5.10;99.90;;;;;;4942646;29;20485;-32
2021/12/21 12:30:16;;;;;;;11.93;4.47;;;5.10;99.90;;;;;;4954844;29;20031;-38
2021/12/21 12:32:47;;;;;;;8.40;4.07;;;5.20;99.90;;;;;;4956510;29;20020;-49
2021/12/21 12:35:20;;;;;;;11.48;4.78;;;5.20;99.90;;;;;;4937898;29;20034;-36
2021/12/21 12:37:53;;;;;;;9.27;4.25;;;5.40;99.90;;;;;;4954623;29;20039;-33
2021/12/21 12:40:25;;;;;;;11.07;4.72;;;5.40;99.90;;;;;;4955481;29;20088;-38
2021/12/21 12:43:18;;;;;;;8.30;4.65;;;5.40;99.90;;;;;;4955592;29;20133;-38
2021/12/21 12:45:51;;;;;;;14.32;6.18;;;5.40;99.90;;;;;;4956750;29;20532;-36
2021/12/21 12:48:36;;;;;;;14.20;8.23;;;5.50;99.90;;;;;;4956028;29;20031;-37
2021/12/21 12:51:04;;;;;;;14.00;5.07;;;5.50;99.90;;;;;;4956475;29;20110;-38
2021/12/21 12:53:44;;;;;;;8.75;4.50;;;5.60;99.90;;;;;;4951935;29;20035;-36
2021/12/21 12:56:14;;;;;;;19.35;5.00;;;5.60;99.90;;;;;;4949196;29;20555;-35
2021/12/21 12:58:59;;;;;;;12.60;4.38;;;5.50;99.90;;;;;;4948867;29;20371;-40
2021/12/21 13:01:27;;;;;;;10.07;4.35;;;5.50;99.90;;;;;;4948598;29;20027;-41
2021/12/21 13:03:58;;;;;;;9.32;3.60;;;5.50;99.90;;;;;;4949903;29;20023;-33
2021/12/21 13:06:26;;;;;;;11.85;4.22;;;5.50;99.90;;;;;;4953587;29;20028;-35
2021/12/21 13:08:52;;;;;;;9.57;4.60;;;5.50;99.90;;;;;;4955246;29;20027;-33
2021/12/21 13:11:21;;;;;;;8.05;4.25;;;5.60;99.90;;;;;;4954680;29;20488;-43
2021/12/21 13:13:49;;;;;;;17.20;5.38;;;5.60;99.90;;;;;;4955686;29;20031;-37
2021/12/21 13:16:19;;;;;;;14.45;5.38;;;5.60;99.90;;;;;;4954885;29;20628;-41
2021/12/21 13:18:47;;;;;;;16.98;5.97;;;5.60;99.90;;;;;;4951130;29;20030;-36
2021/12/21 13:21:29;;;;;;;16.10;5.30;;;5.60;99.90;;;;;;4955401;29;20032;-35
2021/12/21 13:24:16;;;;;;;18.45;6.43;;;5.50;99.90;;;;;;4954591;29;20079;-33
2021/12/21 13:26:48;;;;;;;10.98;4.80;;;5.40;99.90;;;;;;4954296;29;20082;-36
2021/12/21 13:29:18;;;;;;;10.82;4.90;;;5.30;99.90;;;;;;4954406;29;20035;-38
2021/12/21 13:31:47;;;;;;;11.77;5.00;;;5.30;99.90;;;;;;4954931;29;20399;-44
2021/12/21 13:34:13;;;;;;;8.75;4.40;;;5.40;99.90;;;;;;4936846;29;20086;-36
2021/12/21 13:36:42;;;;;;;11.90;4.53;;;5.40;99.90;;;;;;4952134;28;20034;-32
2021/12/21 13:39:19;;;;;;;12.40;4.68;;;5.40;99.90;;;;;;4954576;29;20039;-31
2021/12/21 13:41:55;;;;;;;17.38;4.85;;;5.30;99.90;;;;;;4953507;29;20042;-43
2021/12/21 13:44:31;;;;;;;10.90;4.20;;;5.30;99.90;;;;;;4940366;29;20027;-38
2021/12/21 13:47:00;;;;;;;11.10;4.55;;;5.40;99.90;;;;;;4954387;29;20455;-38
2021/12/21 13:49:27;;;;;;;13.63;4.07;;;5.50;99.90;;;;;;4953163;29;20020;-40
2021/12/21 13:51:55;;;;;;;11.57;4.95;;;5.50;99.90;;;;;;4953099;29;20035;-39
2021/12/21 13:54:24;;;;;;;11.50;4.38;;;5.50;99.90;;;;;;4936606;29;20046;-39
2021/12/21 13:56:51;;;;;;;13.93;3.83;;;5.50;99.90;;;;;;4954699;29;20030;-38
2021/12/21 13:59:18;;;;;;;8.85;3.90;;;5.60;99.90;;;;;;4953278;29;20038;-31